Archival Weather

Republic

Farmingdale, New York (KFRG)

Report from: Wednesday, February 14, 2024 7:53 PM EST
Current time: Friday, June 14, 2024 9:19 AM EDT

Current weather – Weather history – Daily summaries
Weather forecast

Temperature-0.6°C (30.9°F)
Wind chill-5.1°C (22.8°F)
Dew point-12.2°C (10.0°F)
Winds 8 kts (4.1 m/s, 9.2 mph) Northwest (310°)
Wind gusts 18 kts (9.3 m/s, 20.7 mph)
Visibility10 mi. (16.1 km)
Clouds Sky clear
Altimeter30.09 in.Hg (1019 mB)
Relative humidity41 %
Density altitude-2,062 ft. (-628 m)
Sea-level pressure101.9 kPa (1019 mB, 30.09 in.Hg)
Remarks Automated weather observing station without precipitation discriminator
Flight conditions Visual Meteorological Conditions
Raw dataKFRG 150053Z 31008G18KT 10SM CLR M01/M12 A3009 RMK AO1 SLP190 T10061122
An error has occurred. This application may no longer respond until reloaded. Reload 🗙